Time;durP1;ratioP1;P1;durP2;ratioP2;P2;SDS_P1;SDS_P2;PMS_P1;PMS_P2;Temp;Humidity;BMP_temperature;BMP_pressure;BME280_temperature;BME280_humidity;BME280_pressure;Samples;Min_cycle;Max_cycle;Signal;HPM_P1;HPM_P2
2021/08/29 00:00:42;;;;;;;18.25;15.20;;;13.10;99.90;;;;;;2081467;28;20096;-66
2021/08/29 00:01:42;;;;;;;19.75;15.57;;;13.10;99.90;;;;;;2089432;28;20044;-66
2021/08/29 00:02:43;;;;;;;20.13;15.98;;;13.10;99.90;;;;;;2089534;28;20021;-66
2021/08/29 00:03:44;;;;;;;17.67;15.10;;;13.10;99.90;;;;;;2089080;28;20025;-67
2021/08/29 00:04:44;;;;;;;17.77;15.43;;;13.10;99.90;;;;;;2080899;28;20042;-66
2021/08/29 00:05:45;;;;;;;19.83;16.02;;;13.10;99.90;;;;;;2080044;28;20075;-67
2021/08/29 00:06:45;;;;;;;19.08;15.98;;;13.10;99.90;;;;;;2080676;28;20099;-67
2021/08/29 00:07:46;;;;;;;19.15;15.30;;;13.10;99.90;;;;;;2080219;28;20048;-67
2021/08/29 00:08:47;;;;;;;18.90;15.73;;;13.10;99.90;;;;;;2088688;28;20033;-66
2021/08/29 00:09:47;;;;;;;18.38;15.50;;;13.10;99.90;;;;;;2088774;28;20794;-67
2021/08/29 00:10:48;;;;;;;18.95;15.55;;;13.10;99.90;;;;;;2089555;28;20060;-67
2021/08/29 00:11:49;;;;;;;17.65;14.88;;;13.10;99.90;;;;;;2089315;28;20155;-67
2021/08/29 00:12:49;;;;;;;17.30;15.02;;;13.10;99.90;;;;;;2080714;28;20084;-67
2021/08/29 00:13:50;;;;;;;17.25;14.60;;;13.10;99.90;;;;;;2080139;28;20117;-67
2021/08/29 00:14:51;;;;;;;16.83;15.00;;;13.10;99.90;;;;;;2089255;28;20044;-67
2021/08/29 00:15:51;;;;;;;16.52;13.93;;;13.10;99.90;;;;;;2080486;28;20033;-66
2021/08/29 00:16:52;;;;;;;17.67;15.23;;;13.00;99.90;;;;;;2080507;28;20057;-67
2021/08/29 00:17:53;;;;;;;16.58;14.50;;;13.00;99.90;;;;;;2081013;28;20080;-66
2021/08/29 00:18:53;;;;;;;16.17;14.25;;;13.10;99.90;;;;;;2080695;28;20033;-67
2021/08/29 00:19:54;;;;;;;17.73;15.23;;;13.10;99.90;;;;;;2072269;28;20036;-67
2021/08/29 00:20:55;;;;;;;16.83;14.65;;;13.00;99.90;;;;;;2080371;28;20420;-67
2021/08/29 00:21:55;;;;;;;15.73;14.02;;;13.00;99.90;;;;;;2089331;28;20064;-67
2021/08/29 00:22:56;;;;;;;15.60;13.88;;;13.00;99.90;;;;;;2089461;28;20033;-66
2021/08/29 00:23:57;;;;;;;15.27;13.68;;;13.00;99.90;;;;;;2080031;28;20033;-67
2021/08/29 00:24:57;;;;;;;18.40;13.93;;;13.00;99.90;;;;;;2080340;28;20116;-67
2021/08/29 00:25:58;;;;;;;18.88;14.82;;;13.00;99.90;;;;;;2089413;28;20109;-67
2021/08/29 00:26:58;;;;;;;17.92;14.00;;;13.00;99.90;;;;;;2089361;28;20039;-67
2021/08/29 00:27:59;;;;;;;15.77;13.70;;;13.00;99.90;;;;;;2089291;28;20083;-68
2021/08/29 00:28:59;;;;;;;15.40;13.80;;;13.00;99.90;;;;;;2088945;28;20021;-67
2021/08/29 00:30:00;;;;;;;15.65;13.82;;;13.00;99.90;;;;;;2088956;28;20495;-67
2021/08/29 00:31:01;;;;;;;16.77;13.57;;;13.00;99.90;;;;;;2089372;28;20063;-67
2021/08/29 00:32:02;;;;;;;15.25;13.27;;;12.90;99.90;;;;;;2080294;28;20040;-67
2021/08/29 00:33:03;;;;;;;15.15;13.55;;;12.90;99.90;;;;;;2080463;28;20529;-67
2021/08/29 00:34:03;;;;;;;13.85;12.38;;;12.90;99.90;;;;;;2088792;28;20033;-67
2021/08/29 00:35:04;;;;;;;16.40;13.93;;;12.90;99.90;;;;;;2080173;28;20033;-68
2021/08/29 00:36:06;;;;;;;15.30;13.65;;;12.90;99.90;;;;;;2072204;28;20026;-68
2021/08/29 00:37:07;;;;;;;16.48;13.52;;;12.90;99.90;;;;;;2071972;28;20056;-68
2021/08/29 00:38:08;;;;;;;14.88;13.30;;;12.90;99.90;;;;;;2072116;28;20021;-67
2021/08/29 00:39:08;;;;;;;14.75;13.10;;;12.90;99.90;;;;;;2079804;28;20036;-68
2021/08/29 00:40:10;;;;;;;14.25;12.75;;;12.90;99.90;;;;;;2080167;28;20026;-67
2021/08/29 00:41:11;;;;;;;16.35;13.00;;;12.90;99.90;;;;;;2072115;28;20472;-67
2021/08/29 00:42:11;;;;;;;14.10;12.60;;;12.90;99.90;;;;;;2072117;28;20030;-67
2021/08/29 00:43:16;;;;;;;13.70;12.30;;;12.90;99.90;;;;;;2072402;28;20029;-67
2021/08/29 00:44:20;;;;;;;14.10;12.52;;;12.90;99.90;;;;;;2070781;28;20105;-68
2021/08/29 00:45:22;;;;;;;14.60;12.55;;;12.90;99.90;;;;;;2072502;28;20038;-68
2021/08/29 00:46:22;;;;;;;13.98;12.55;;;12.90;99.90;;;;;;2072299;28;20025;-67
2021/08/29 00:47:23;;;;;;;13.40;12.00;;;12.90;99.90;;;;;;2072187;28;20025;-68
2021/08/29 00:48:24;;;;;;;14.05;12.55;;;12.90;99.90;;;;;;2072245;28;20088;-67
2021/08/29 00:49:25;;;;;;;14.35;12.85;;;12.90;99.90;;;;;;2080077;28;20176;-66
2021/08/29 00:50:27;;;;;;;14.35;12.85;;;12.80;99.90;;;;;;2071873;28;20030;-67
2021/08/29 00:51:28;;;;;;;13.02;11.65;;;12.80;99.90;;;;;;2080243;28;20033;-66
2021/08/29 00:52:29;;;;;;;13.85;12.15;;;12.80;99.90;;;;;;2080405;28;20473;-67
2021/08/29 00:53:32;;;;;;;12.88;11.15;;;12.80;99.90;;;;;;2079757;28;20029;-67
2021/08/29 00:54:38;;;;;;;13.35;11.95;;;12.80;99.90;;;;;;2072445;28;20116;-67
2021/08/29 00:55:39;;;;;;;13.63;12.23;;;12.80;99.90;;;;;;2072445;28;20030;-66
2021/08/29 00:56:40;;;;;;;13.48;12.02;;;12.80;99.90;;;;;;2080219;28;20037;-67
2021/08/29 00:57:43;;;;;;;15.93;13.02;;;12.80;99.90;;;;;;2080194;28;20029;-67
2021/08/29 00:58:48;;;;;;;15.88;12.95;;;12.80;99.90;;;;;;2072236;28;20086;-67
2021/08/29 00:59:48;;;;;;;15.15;12.82;;;12.80;99.90;;;;;;2072315;28;20549;-66
2021/08/29 01:00:57;;;;;;;16.00;13.60;;;12.80;99.90;;;;;;2072632;28;20034;-66
2021/08/29 01:02:11;;;;;;;14.05;12.55;;;12.80;99.90;;;;;;2080283;28;20117;-67
2021/08/29 01:03:18;;;;;;;13.65;11.82;;;12.80;99.90;;;;;;2082270;28;20017;-67
2021/08/29 01:04:24;;;;;;;13.60;12.20;;;12.70;99.90;;;;;;2079997;28;20056;-66
2021/08/29 01:05:44;;;;;;;13.18;11.45;;;12.80;99.90;;;;;;2072700;28;20029;-66
2021/08/29 01:07:10;;;;;;;12.95;11.60;;;12.80;99.90;;;;;;2075915;28;20560;-66
2021/08/29 01:08:23;;;;;;;13.48;12.10;;;12.70;99.90;;;;;;2080232;28;20493;-66
2021/08/29 01:09:29;;;;;;;13.38;11.98;;;12.70;99.90;;;;;;2079942;28;20025;-66
2021/08/29 01:10:58;;;;;;;14.35;12.60;;;12.70;99.90;;;;;;2080683;28;20024;-67
2021/08/29 01:12:01;;;;;;;13.82;12.13;;;12.70;99.90;;;;;;2080064;28;20017;-66
2021/08/29 01:13:27;;;;;;;13.77;12.18;;;12.70;99.90;;;;;;2080242;28;20030;-66
2021/08/29 01:14:31;;;;;;;14.23;12.00;;;12.70;99.90;;;;;;2073631;28;20029;-66
2021/08/29 01:15:33;;;;;;;15.13;11.80;;;12.60;99.90;;;;;;2072483;28;20032;-66
2021/08/29 01:16:36;;;;;;;12.48;11.15;;;12.70;99.90;;;;;;2071880;28;20505;-67
2021/08/29 01:17:39;;;;;;;11.65;10.45;;;12.70;99.90;;;;;;2080226;28;20042;-66
2021/08/29 01:18:41;;;;;;;14.18;12.32;;;12.60;99.90;;;;;;2079782;28;20040;-67
2021/08/29 01:19:56;;;;;;;13.48;12.07;;;12.60;99.90;;;;;;2080273;28;20037;-66
2021/08/29 01:21:19;;;;;;;13.77;12.35;;;12.60;99.90;;;;;;2080034;28;20036;-66
2021/08/29 01:22:21;;;;;;;14.07;12.40;;;12.60;99.90;;;;;;2080021;28;20029;-65
2021/08/29 01:23:23;;;;;;;13.60;12.10;;;12.60;99.90;;;;;;2071612;28;20137;-67
2021/08/29 01:24:26;;;;;;;15.15;11.77;;;12.60;99.90;;;;;;2080006;28;20212;-67
2021/08/29 01:25:35;;;;;;;12.73;11.25;;;12.60;99.90;;;;;;2080739;28;20053;-66
2021/08/29 01:26:47;;;;;;;14.63;12.07;;;12.60;99.90;;;;;;2080852;28;20109;-67
2021/08/29 01:27:59;;;;;;;13.85;11.43;;;12.60;99.90;;;;;;2079943;28;20021;-67
2021/08/29 01:29:05;;;;;;;13.65;11.70;;;12.50;99.90;;;;;;2073053;28;20025;-67
2021/08/29 01:30:10;;;;;;;14.63;12.30;;;12.60;99.90;;;;;;2072894;28;20049;-67
2021/08/29 01:31:11;;;;;;;13.82;12.18;;;12.60;99.90;;;;;;2071994;28;20037;-67
2021/08/29 01:32:14;;;;;;;14.45;12.63;;;12.50;99.90;;;;;;2080021;28;20026;-67
2021/08/29 01:33:23;;;;;;;14.70;12.20;;;12.50;99.90;;;;;;2072361;28;20043;-68
2021/08/29 01:34:31;;;;;;;16.85;12.52;;;12.50;99.90;;;;;;2079548;28;20394;-67
2021/08/29 01:35:49;;;;;;;17.05;13.00;;;12.50;99.90;;;;;;2078371;28;20028;-67
2021/08/29 01:36:54;;;;;;;16.23;13.02;;;12.50;99.90;;;;;;2071353;28;20021;-67
2021/08/29 01:37:55;;;;;;;17.20;13.18;;;12.40;99.90;;;;;;2079624;28;20053;-67
2021/08/29 01:38:57;;;;;;;16.10;13.80;;;12.50;99.90;;;;;;2071201;28;20397;-67
2021/08/29 01:40:00;;;;;;;15.27;13.07;;;12.40;99.90;;;;;;2079716;28;20034;-68
2021/08/29 01:41:04;;;;;;;15.05;13.13;;;12.40;99.90;;;;;;2079969;28;20044;-67
2021/08/29 01:42:06;;;;;;;16.52;13.10;;;12.40;99.90;;;;;;2073496;28;20428;-67
2021/08/29 01:43:07;;;;;;;14.88;12.85;;;12.40;99.90;;;;;;2080086;28;20096;-67
2021/08/29 01:44:10;;;;;;;15.90;13.02;;;12.40;99.90;;;;;;2071937;28;20085;-67
2021/08/29 01:45:11;;;;;;;15.18;13.00;;;12.40;99.90;;;;;;2088623;28;20516;-67
2021/08/29 01:46:18;;;;;;;15.23;12.80;;;12.40;99.90;;;;;;2088279;28;20021;-67
2021/08/29 01:47:34;;;;;;;17.02;12.63;;;12.40;99.90;;;;;;2088261;28;20032;-67
2021/08/29 01:48:39;;;;;;;15.23;12.75;;;12.40;99.90;;;;;;2088228;28;20496;-67
2021/08/29 01:49:44;;;;;;;14.18;12.15;;;12.40;99.90;;;;;;2088246;28;20025;-68
2021/08/29 01:50:46;;;;;;;14.63;12.30;;;12.40;99.90;;;;;;2079948;28;20041;-66
2021/08/29 01:52:03;;;;;;;13.82;12.30;;;12.30;99.90;;;;;;2079833;28;20092;-66
2021/08/29 01:53:23;;;;;;;13.50;12.07;;;12.30;99.90;;;;;;2078528;28;20049;-66
2021/08/29 01:54:44;;;;;;;13.55;12.10;;;12.30;99.90;;;;;;2085689;28;20032;-66
2021/08/29 01:55:50;;;;;;;16.13;12.43;;;12.30;99.90;;;;;;2081980;28;20521;-66
2021/08/29 01:57:14;;;;;;;13.98;11.70;;;12.20;99.90;;;;;;2081840;28;20476;-65
2021/08/29 01:58:18;;;;;;;13.73;11.65;;;12.20;99.90;;;;;;2078411;28;20540;-65
2021/08/29 01:59:19;;;;;;;13.93;11.85;;;12.20;99.90;;;;;;2091225;28;20032;-66
2021/08/29 02:00:20;;;;;;;13.90;11.70;;;12.20;99.90;;;;;;2089744;28;20475;-65
2021/08/29 02:01:21;;;;;;;14.73;12.07;;;12.20;99.90;;;;;;2081478;28;20424;-66
2021/08/29 02:02:26;;;;;;;12.90;11.60;;;12.20;99.90;;;;;;2082141;28;20445;-66
2021/08/29 02:03:29;;;;;;;15.57;12.25;;;12.20;99.90;;;;;;2080912;28;20030;-65
2021/08/29 02:04:53;;;;;;;13.13;11.68;;;12.10;99.90;;;;;;2084396;28;20395;-66
2021/08/29 02:06:13;;;;;;;15.48;12.23;;;12.10;99.90;;;;;;2089778;28;20060;-66
2021/08/29 02:07:32;;;;;;;13.35;11.50;;;12.10;99.90;;;;;;2083066;28;20036;-66
2021/08/29 02:09:02;;;;;;;13.13;11.73;;;12.10;99.90;;;;;;2088939;28;20029;-66
2021/08/29 02:10:09;;;;;;;13.27;11.85;;;12.10;99.90;;;;;;2083045;28;20029;-66
2021/08/29 02:11:11;;;;;;;14.93;12.25;;;12.10;99.90;;;;;;2089677;28;20040;-66
2021/08/29 02:12:12;;;;;;;13.55;12.13;;;12.10;99.90;;;;;;2089706;28;20464;-67
2021/08/29 02:13:14;;;;;;;14.38;11.95;;;12.10;99.90;;;;;;2081403;28;20022;-67
2021/08/29 02:14:20;;;;;;;14.90;12.38;;;12.10;99.90;;;;;;2089359;28;20423;-67
2021/08/29 02:15:28;;;;;;;14.93;13.02;;;12.10;99.90;;;;;;2073872;28;20156;-67
2021/08/29 02:16:35;;;;;;;15.52;12.57;;;12.10;99.90;;;;;;2082380;28;20041;-67
2021/08/29 02:17:38;;;;;;;14.00;12.50;;;12.10;99.90;;;;;;2089717;28;20055;-67
2021/08/29 02:18:42;;;;;;;14.82;12.23;;;12.10;99.90;;;;;;2089283;28;20029;-67
2021/08/29 02:19:44;;;;;;;16.75;12.98;;;12.10;99.90;;;;;;2090165;28;20072;-67
2021/08/29 02:20:48;;;;;;;14.02;12.52;;;12.00;99.90;;;;;;2089623;28;20079;-67
2021/08/29 02:21:49;;;;;;;14.30;11.75;;;12.00;99.90;;;;;;2089736;28;20507;-66
2021/08/29 02:22:52;;;;;;;14.52;12.10;;;12.00;99.90;;;;;;2089624;28;20095;-67
2021/08/29 02:23:54;;;;;;;14.10;11.63;;;12.00;99.90;;;;;;2081292;28;20156;-67
2021/08/29 02:24:54;;;;;;;13.63;12.23;;;12.00;99.90;;;;;;2089459;28;20032;-68
2021/08/29 02:25:56;;;;;;;14.02;12.18;;;12.00;99.90;;;;;;2089778;28;20041;-68
2021/08/29 02:26:57;;;;;;;13.50;12.02;;;12.00;99.90;;;;;;2081639;28;20032;-68
2021/08/29 02:27:58;;;;;;;14.35;12.32;;;12.00;99.90;;;;;;2089599;28;20032;-68
2021/08/29 02:29:00;;;;;;;14.82;12.25;;;12.00;99.90;;;;;;2084498;28;20033;-68
2021/08/29 02:30:01;;;;;;;12.77;11.25;;;12.00;99.90;;;;;;2089432;28;20793;-68
2021/08/29 02:31:02;;;;;;;13.30;11.90;;;12.00;99.90;;;;;;2097770;28;20060;-68
2021/08/29 02:32:04;;;;;;;13.82;12.13;;;12.00;99.90;;;;;;2090025;28;20029;-68
2021/08/29 02:33:05;;;;;;;13.60;11.82;;;12.00;99.90;;;;;;2089874;28;20051;-67
2021/08/29 02:34:06;;;;;;;14.10;12.50;;;12.00;99.90;;;;;;2089838;28;20059;-67
2021/08/29 02:35:08;;;;;;;13.73;12.15;;;12.00;99.90;;;;;;2090236;28;20037;-68
2021/08/29 02:36:19;;;;;;;13.82;11.68;;;12.00;99.90;;;;;;2090756;28;20033;-67
2021/08/29 02:37:26;;;;;;;12.82;11.52;;;12.00;99.90;;;;;;2097814;28;20647;-68
2021/08/29 02:38:33;;;;;;;13.18;11.77;;;12.00;99.90;;;;;;2090394;28;20068;-68
2021/08/29 02:39:36;;;;;;;13.02;11.63;;;12.00;99.90;;;;;;2096916;28;20037;-68
2021/08/29 02:40:39;;;;;;;13.40;11.65;;;12.00;99.90;;;;;;2084161;28;20040;-68
2021/08/29 02:41:41;;;;;;;13.30;11.88;;;12.00;99.90;;;;;;2095579;28;20519;-68
2021/08/29 02:42:43;;;;;;;13.52;12.02;;;12.00;99.90;;;;;;2096031;28;20025;-68
2021/08/29 02:43:46;;;;;;;13.18;11.88;;;12.00;99.90;;;;;;2093134;28;20032;-68
2021/08/29 02:44:47;;;;;;;13.75;12.05;;;12.00;99.90;;;;;;2091829;28;20021;-68
2021/08/29 02:45:49;;;;;;;14.45;12.15;;;12.00;99.90;;;;;;2092392;28;20025;-68
2021/08/29 02:46:57;;;;;;;15.70;12.50;;;12.00;99.90;;;;;;2093922;28;20025;-67
2021/08/29 02:47:59;;;;;;;15.07;12.38;;;12.00;99.90;;;;;;2092830;28;20033;-67
2021/08/29 02:49:07;;;;;;;12.68;11.35;;;12.00;99.90;;;;;;2082497;28;20021;-67
2021/08/29 02:50:09;;;;;;;12.80;11.48;;;12.00;99.90;;;;;;2089781;28;20033;-67
2021/08/29 02:51:17;;;;;;;13.27;11.88;;;12.00;99.90;;;;;;2082460;28;20787;-67
2021/08/29 02:52:21;;;;;;;13.85;12.27;;;12.00;99.90;;;;;;2089561;28;20115;-68
2021/08/29 02:53:23;;;;;;;13.32;11.68;;;12.00;99.90;;;;;;2088844;28;20025;-67
2021/08/29 02:54:26;;;;;;;13.32;11.88;;;12.00;99.90;;;;;;2081266;28;20400;-67
2021/08/29 02:55:30;;;;;;;13.20;11.38;;;12.00;99.90;;;;;;2081873;28;20056;-67
2021/08/29 02:56:33;;;;;;;14.05;12.55;;;12.00;99.90;;;;;;2089283;28;20091;-67
2021/08/29 02:57:36;;;;;;;13.20;11.80;;;12.00;99.90;;;;;;2081603;28;20059;-67
2021/08/29 02:58:55;;;;;;;14.45;12.30;;;12.00;99.90;;;;;;2089567;28;20037;-67
2021/08/29 03:00:00;;;;;;;14.23;12.05;;;12.00;99.90;;;;;;2089394;28;20056;-67
2021/08/29 03:01:01;;;;;;;13.60;12.18;;;12.00;99.90;;;;;;2081159;28;20160;-67
2021/08/29 03:02:24;;;;;;;14.32;11.75;;;12.00;99.90;;;;;;2076404;28;20034;-69
2021/08/29 03:03:25;;;;;;;13.45;11.48;;;12.00;99.90;;;;;;2088749;28;20036;-67
2021/08/29 03:04:26;;;;;;;12.55;11.05;;;12.00;99.90;;;;;;2089262;28;20432;-67
2021/08/29 03:05:27;;;;;;;13.07;11.68;;;12.00;99.90;;;;;;2089144;28;20025;-67
2021/08/29 03:06:27;;;;;;;12.48;11.15;;;12.00;99.90;;;;;;2088557;28;20052;-67
2021/08/29 03:07:29;;;;;;;12.63;10.85;;;12.00;99.90;;;;;;2088459;28;20029;-68
2021/08/29 03:08:30;;;;;;;12.32;11.02;;;12.00;99.90;;;;;;2089614;28;20063;-69
2021/08/29 03:09:33;;;;;;;13.30;11.52;;;12.00;99.90;;;;;;2089701;28;20037;-67
2021/08/29 03:10:35;;;;;;;12.52;11.23;;;12.00;99.90;;;;;;2089505;28;20040;-67
2021/08/29 03:11:37;;;;;;;14.55;12.77;;;12.00;99.90;;;;;;2080832;28;20228;-67
2021/08/29 03:12:40;;;;;;;14.77;11.90;;;12.00;99.90;;;;;;2080964;28;20040;-67
2021/08/29 03:14:08;;;;;;;14.77;12.93;;;12.00;99.90;;;;;;2089370;28;20029;-67
2021/08/29 03:15:12;;;;;;;15.98;13.90;;;12.00;99.90;;;;;;2089532;28;20571;-67
2021/08/29 03:16:13;;;;;;;16.85;14.75;;;12.00;99.90;;;;;;2089760;28;20451;-67
2021/08/29 03:17:19;;;;;;;16.67;13.50;;;12.00;99.90;;;;;;2082278;28;20047;-67
2021/08/29 03:18:22;;;;;;;15.18;13.57;;;11.90;99.90;;;;;;2090050;28;20025;-67
2021/08/29 03:19:23;;;;;;;17.08;14.75;;;11.90;99.90;;;;;;2089507;28;20024;-67
2021/08/29 03:20:46;;;;;;;20.25;15.77;;;11.90;99.90;;;;;;2083646;28;20055;-68
2021/08/29 03:21:47;;;;;;;18.65;15.00;;;11.90;99.90;;;;;;2089141;28;20082;-68
2021/08/29 03:22:48;;;;;;;16.58;14.77;;;11.90;99.90;;;;;;2089079;28;20100;-67
2021/08/29 03:23:49;;;;;;;17.33;14.57;;;11.90;99.90;;;;;;2080437;28;20029;-67
2021/08/29 03:24:50;;;;;;;16.98;14.90;;;11.90;99.90;;;;;;2089039;28;20025;-67
2021/08/29 03:25:51;;;;;;;17.67;15.05;;;11.90;99.90;;;;;;2080746;28;20079;-67
2021/08/29 03:26:53;;;;;;;17.85;15.60;;;11.90;99.90;;;;;;2089045;28;20031;-67
2021/08/29 03:27:57;;;;;;;17.75;15.52;;;11.90;99.90;;;;;;2089174;28;20056;-67
2021/08/29 03:28:58;;;;;;;17.90;15.57;;;11.80;99.90;;;;;;2088810;28;20663;-67
2021/08/29 03:29:58;;;;;;;17.40;15.52;;;11.80;99.90;;;;;;2080760;28;20469;-67
2021/08/29 03:30:59;;;;;;;17.70;15.18;;;11.80;99.90;;;;;;2072642;28;20027;-67
2021/08/29 03:32:00;;;;;;;17.20;15.13;;;11.80;99.90;;;;;;2080549;28;20033;-67
2021/08/29 03:33:01;;;;;;;20.05;15.57;;;11.80;99.90;;;;;;2088896;28;20025;-67
2021/08/29 03:34:13;;;;;;;16.70;14.48;;;11.80;99.90;;;;;;2088481;28;20477;-67
2021/08/29 03:35:15;;;;;;;18.60;15.00;;;11.80;99.90;;;;;;2088949;28;20033;-67
2021/08/29 03:36:29;;;;;;;17.80;14.15;;;11.80;99.90;;;;;;2081964;28;20037;-68
2021/08/29 03:37:31;;;;;;;17.73;15.60;;;11.70;99.90;;;;;;2089009;28;20033;-67
2021/08/29 03:38:37;;;;;;;17.48;15.10;;;11.80;99.90;;;;;;2088936;28;20498;-67
2021/08/29 03:39:38;;;;;;;16.10;14.02;;;11.70;99.90;;;;;;2081085;28;20035;-67
2021/08/29 03:40:39;;;;;;;15.23;13.63;;;11.70;99.90;;;;;;2080687;28;20032;-67
2021/08/29 03:41:42;;;;;;;17.45;14.50;;;11.70;99.90;;;;;;2080640;28;20037;-67
2021/08/29 03:42:46;;;;;;;17.35;14.80;;;11.70;99.90;;;;;;2088698;28;20025;-67
2021/08/29 03:43:49;;;;;;;15.73;13.85;;;11.70;99.90;;;;;;2088509;28;20021;-67
2021/08/29 03:44:51;;;;;;;15.82;13.90;;;11.70;99.90;;;;;;2088927;28;20075;-66
2021/08/29 03:45:51;;;;;;;18.00;15.55;;;11.70;99.90;;;;;;2088872;28;20025;-67
2021/08/29 03:46:52;;;;;;;18.27;15.55;;;11.70;99.90;;;;;;2088966;28;20028;-67
2021/08/29 03:48:13;;;;;;;17.85;14.98;;;11.70;99.90;;;;;;2083302;28;20025;-67
2021/08/29 03:49:14;;;;;;;17.10;14.77;;;11.80;99.90;;;;;;2088685;28;20032;-67
2021/08/29 03:50:15;;;;;;;18.45;15.07;;;11.80;99.90;;;;;;2088863;28;20047;-67
2021/08/29 03:51:20;;;;;;;19.02;15.40;;;11.80;99.90;;;;;;2088712;28;20067;-67
2021/08/29 03:52:21;;;;;;;18.30;13.85;;;11.80;99.90;;;;;;2080611;28;20370;-67
2021/08/29 03:53:41;;;;;;;19.63;15.80;;;11.90;99.90;;;;;;2088748;28;20032;-67
2021/08/29 03:54:43;;;;;;;22.98;17.20;;;11.90;99.90;;;;;;2088957;28;20143;-67
2021/08/29 03:55:45;;;;;;;23.88;17.17;;;11.90;99.90;;;;;;2088519;28;20025;-67
2021/08/29 03:56:46;;;;;;;26.33;18.92;;;11.90;99.90;;;;;;2080702;28;20080;-67
2021/08/29 03:57:47;;;;;;;25.63;17.02;;;11.90;99.90;;;;;;2080570;28;20026;-67
2021/08/29 03:58:48;;;;;;;24.23;17.95;;;11.90;99.90;;;;;;2088489;28;20131;-67
2021/08/29 03:59:49;;;;;;;24.40;17.60;;;11.90;99.90;;;;;;2088713;28;20490;-67
2021/08/29 04:00:50;;;;;;;24.63;18.27;;;11.90;99.90;;;;;;2088817;28;20408;-67
2021/08/29 04:01:51;;;;;;;24.13;17.63;;;11.90;99.90;;;;;;2088613;28;20029;-67
2021/08/29 04:02:51;;;;;;;23.27;17.63;;;11.90;99.90;;;;;;2080448;28;20021;-67
2021/08/29 04:04:12;;;;;;;22.48;16.90;;;11.90;99.90;;;;;;2075616;28;20824;-67
2021/08/29 04:05:14;;;;;;;27.20;19.23;;;12.00;99.90;;;;;;2083304;28;20055;-67
2021/08/29 04:06:17;;;;;;;27.83;19.10;;;12.00;99.90;;;;;;2080790;28;20041;-67
2021/08/29 04:07:20;;;;;;;28.83;19.70;;;12.00;99.90;;;;;;2088693;28;20025;-67
2021/08/29 04:08:40;;;;;;;29.67;21.45;;;12.00;99.90;;;;;;2082482;28;20144;-67
2021/08/29 04:09:41;;;;;;;34.35;22.15;;;12.00;99.90;;;;;;2088705;28;20029;-67
2021/08/29 04:10:43;;;;;;;32.72;21.85;;;12.00;99.90;;;;;;2088640;28;20033;-67
2021/08/29 04:11:47;;;;;;;30.63;20.35;;;12.00;99.90;;;;;;2080639;28;20038;-67
2021/08/29 04:12:49;;;;;;;31.20;20.63;;;12.00;99.90;;;;;;2088517;28;20408;-67
2021/08/29 04:14:13;;;;;;;27.85;19.27;;;12.10;99.90;;;;;;2088358;28;20071;-67
2021/08/29 04:15:18;;;;;;;26.88;19.38;;;12.10;99.90;;;;;;2088601;28;20494;-67
2021/08/29 04:16:22;;;;;;;25.63;18.08;;;12.20;99.90;;;;;;2080587;28;20034;-67
2021/08/29 04:17:31;;;;;;;24.05;17.75;;;12.20;99.90;;;;;;2081129;28;20738;-67
2021/08/29 04:18:43;;;;;;;26.42;18.15;;;12.20;99.90;;;;;;2080633;28;20817;-67
2021/08/29 04:19:46;;;;;;;24.45;17.35;;;12.30;99.90;;;;;;2081977;28;20499;-67
2021/08/29 04:20:46;;;;;;;22.00;16.23;;;12.30;99.90;;;;;;2080317;28;20033;-67
2021/08/29 04:21:47;;;;;;;22.15;15.77;;;12.40;99.90;;;;;;2088478;28;20099;-67
2021/08/29 04:22:48;;;;;;;21.50;15.98;;;12.40;99.90;;;;;;2088571;28;20032;-67
2021/08/29 04:23:49;;;;;;;24.98;17.50;;;12.40;99.90;;;;;;2079743;28;20038;-67
2021/08/29 04:24:51;;;;;;;21.98;16.15;;;12.40;99.90;;;;;;2088380;28;20024;-67
2021/08/29 04:25:53;;;;;;;22.77;15.90;;;12.40;99.90;;;;;;2088575;28;20029;-67
2021/08/29 04:26:54;;;;;;;19.90;14.90;;;12.40;99.90;;;;;;2088519;28;20604;-67
2021/08/29 04:27:54;;;;;;;20.10;15.32;;;12.40;99.90;;;;;;2088432;28;20025;-67
2021/08/29 04:28:55;;;;;;;19.15;14.00;;;12.40;99.90;;;;;;2079967;28;20517;-67
2021/08/29 04:29:56;;;;;;;17.45;14.50;;;12.40;99.90;;;;;;2080279;28;20029;-67
2021/08/29 04:31:01;;;;;;;16.52;13.02;;;12.40;99.90;;;;;;2079927;28;20026;-67
2021/08/29 04:32:03;;;;;;;17.27;13.40;;;12.40;99.90;;;;;;2088399;28;20036;-67
2021/08/29 04:33:04;;;;;;;15.73;13.02;;;12.40;99.90;;;;;;2088400;28;20033;-67
2021/08/29 04:34:25;;;;;;;14.30;12.40;;;12.40;99.90;;;;;;2083136;28;20029;-67
2021/08/29 04:35:36;;;;;;;15.35;13.23;;;12.30;99.90;;;;;;2088463;28;20021;-67
2021/08/29 04:36:38;;;;;;;15.82;13.02;;;12.40;99.90;;;;;;2088457;28;20116;-67
2021/08/29 04:37:53;;;;;;;14.73;12.90;;;12.40;99.90;;;;;;2082267;28;20431;-67
2021/08/29 04:38:54;;;;;;;15.13;12.32;;;12.40;99.90;;;;;;2088126;28;20118;-67
2021/08/29 04:39:54;;;;;;;18.60;14.88;;;12.40;99.90;;;;;;2080222;28;20041;-67
2021/08/29 04:40:58;;;;;;;15.15;12.85;;;12.40;99.90;;;;;;2080722;28;20152;-67
2021/08/29 04:41:59;;;;;;;16.67;13.90;;;12.40;99.90;;;;;;2080250;28;20076;-67
2021/08/29 04:43:01;;;;;;;17.02;14.13;;;12.40;99.90;;;;;;2088334;28;20439;-67
2021/08/29 04:44:10;;;;;;;16.88;13.82;;;12.50;99.90;;;;;;2087988;28;20780;-67
2021/08/29 04:45:11;;;;;;;23.13;15.30;;;12.50;99.90;;;;;;2080828;28;20025;-67
2021/08/29 04:46:14;;;;;;;20.95;15.60;;;12.50;99.90;;;;;;2088412;28;20040;-67
2021/08/29 04:47:18;;;;;;;25.35;17.38;;;12.50;99.90;;;;;;2080969;28;20025;-67
2021/08/29 04:48:22;;;;;;;27.45;18.40;;;12.50;99.90;;;;;;2080646;28;20060;-67
2021/08/29 04:49:24;;;;;;;28.38;18.60;;;12.60;99.90;;;;;;2079911;28;20022;-67
2021/08/29 04:50:25;;;;;;;25.52;17.90;;;12.60;99.90;;;;;;2088278;28;20365;-67
2021/08/29 04:51:26;;;;;;;26.95;18.60;;;12.60;99.90;;;;;;2079856;28;20029;-68
2021/08/29 04:52:26;;;;;;;28.10;19.45;;;12.60;99.90;;;;;;2080079;28;20022;-67
2021/08/29 04:53:31;;;;;;;31.92;20.25;;;12.60;99.90;;;;;;2080079;28;20029;-67
2021/08/29 04:54:32;;;;;;;28.95;20.63;;;12.70;99.90;;;;;;2079931;28;20025;-67
2021/08/29 04:55:33;;;;;;;33.10;22.20;;;12.70;99.90;;;;;;2088303;28;20044;-67
2021/08/29 04:56:33;;;;;;;33.80;22.50;;;12.70;99.90;;;;;;2088251;28;20447;-68
2021/08/29 04:57:35;;;;;;;31.55;21.90;;;12.70;99.90;;;;;;2080089;28;20550;-67
2021/08/29 04:58:35;;;;;;;31.58;21.02;;;12.70;99.90;;;;;;2088163;28;20037;-67
2021/08/29 04:59:36;;;;;;;34.05;21.58;;;12.70;99.90;;;;;;2088043;28;20025;-67
2021/08/29 05:00:36;;;;;;;34.60;23.35;;;12.80;99.90;;;;;;2079933;28;20075;-67
2021/08/29 05:01:37;;;;;;;32.30;21.45;;;12.70;99.90;;;;;;2080004;28;20025;-67
2021/08/29 05:02:38;;;;;;;31.65;21.50;;;12.80;99.90;;;;;;2088197;28;20025;-67
2021/08/29 05:03:39;;;;;;;31.50;21.27;;;12.70;99.90;;;;;;2087742;28;20029;-67
2021/08/29 05:04:40;;;;;;;30.27;21.08;;;12.80;99.90;;;;;;2080016;28;20060;-67
2021/08/29 05:05:43;;;;;;;29.77;20.23;;;12.80;99.90;;;;;;2088375;28;20037;-67
2021/08/29 05:06:47;;;;;;;27.75;19.38;;;12.80;99.90;;;;;;2088177;28;20051;-67
2021/08/29 05:07:51;;;;;;;27.33;19.33;;;12.80;99.90;;;;;;2080320;28;20112;-67
2021/08/29 05:08:53;;;;;;;33.25;21.98;;;12.80;99.90;;;;;;2087856;28;20029;-67
2021/08/29 05:09:53;;;;;;;27.42;19.38;;;12.80;99.90;;;;;;2088249;28;20037;-66
2021/08/29 05:10:54;;;;;;;26.08;18.50;;;12.90;99.90;;;;;;2088288;28;20153;-67
2021/08/29 05:11:55;;;;;;;26.45;18.80;;;12.90;99.90;;;;;;2087948;28;20443;-67
2021/08/29 05:12:57;;;;;;;23.90;17.30;;;12.90;99.90;;;;;;2088116;28;20028;-67
2021/08/29 05:13:57;;;;;;;24.45;17.25;;;12.90;99.90;;;;;;2079593;28;20057;-66
2021/08/29 05:14:58;;;;;;;22.35;16.55;;;12.90;99.90;;;;;;2080113;28;20025;-66
2021/08/29 05:15:59;;;;;;;21.65;16.35;;;13.00;99.90;;;;;;2088222;28;20771;-65
2021/08/29 05:17:00;;;;;;;25.15;17.27;;;13.00;99.90;;;;;;2088239;28;20129;-66
2021/08/29 05:18:03;;;;;;;22.02;16.25;;;13.00;99.90;;;;;;2088224;28;20079;-66
2021/08/29 05:19:09;;;;;;;19.95;15.30;;;13.00;99.90;;;;;;2087981;28;20013;-66
2021/08/29 05:20:11;;;;;;;21.23;15.73;;;13.00;99.90;;;;;;2080149;28;20025;-66
2021/08/29 05:21:35;;;;;;;21.83;15.85;;;13.00;99.90;;;;;;2088922;28;20412;-66
2021/08/29 05:22:57;;;;;;;20.45;14.98;;;13.00;99.90;;;;;;2088298;28;20029;-66
2021/08/29 05:24:17;;;;;;;19.95;14.73;;;13.00;99.90;;;;;;2088460;28;20045;-66
2021/08/29 05:25:26;;;;;;;19.83;14.63;;;13.10;99.90;;;;;;2088219;28;20496;-67
2021/08/29 05:26:26;;;;;;;23.52;16.42;;;13.10;99.90;;;;;;2088426;28;20032;-66
2021/08/29 05:27:28;;;;;;;26.58;17.15;;;13.10;99.90;;;;;;2088579;28;20412;-66